sensor_id;sensor_type;location;lat;lon;timestamp;P1;durP1;ratioP1;P2;durP2;ratioP2
74632;SDS011;63139;52.018;8.552;2022-11-20T00:01:03;33.53;;;16.70;;
74632;SDS011;63139;52.018;8.552;2022-11-20T00:03:32;28.15;;;13.75;;
74632;SDS011;63139;52.018;8.552;2022-11-20T00:06:00;31.17;;;15.15;;
74632;SDS011;63139;52.018;8.552;2022-11-20T00:08:28;42.28;;;19.48;;
74632;SDS011;63139;52.018;8.552;2022-11-20T00:10:56;33.10;;;17.17;;
74632;SDS011;63139;52.018;8.552;2022-11-20T00:13:24;27.60;;;13.60;;
74632;SDS011;63139;52.018;8.552;2022-11-20T00:15:57;33.17;;;15.05;;
74632;SDS011;63139;52.018;8.552;2022-11-20T00:18:26;38.75;;;18.00;;
74632;SDS011;63139;52.018;8.552;2022-11-20T00:20:59;36.83;;;18.73;;
74632;SDS011;63139;52.018;8.552;2022-11-20T00:23:28;30.55;;;14.00;;
74632;SDS011;63139;52.018;8.552;2022-11-20T00:25:55;27.75;;;13.45;;
74632;SDS011;63139;52.018;8.552;2022-11-20T00:28:24;26.25;;;12.60;;
74632;SDS011;63139;52.018;8.552;2022-11-20T00:30:51;35.47;;;16.52;;
74632;SDS011;63139;52.018;8.552;2022-11-20T00:33:20;26.27;;;11.75;;
74632;SDS011;63139;52.018;8.552;2022-11-20T00:35:48;24.30;;;12.63;;
74632;SDS011;63139;52.018;8.552;2022-11-20T00:38:16;35.55;;;16.08;;
74632;SDS011;63139;52.018;8.552;2022-11-20T00:40:44;30.35;;;14.40;;
74632;SDS011;63139;52.018;8.552;2022-11-20T00:43:17;27.05;;;13.20;;
74632;SDS011;63139;52.018;8.552;2022-11-20T00:45:45;28.50;;;13.95;;
74632;SDS011;63139;52.018;8.552;2022-11-20T00:48:13;28.00;;;15.15;;
74632;SDS011;63139;52.018;8.552;2022-11-20T00:50:42;30.33;;;14.38;;
74632;SDS011;63139;52.018;8.552;2022-11-20T00:53:09;34.38;;;15.20;;
74632;SDS011;63139;52.018;8.552;2022-11-20T00:55:37;26.00;;;13.85;;
74632;SDS011;63139;52.018;8.552;2022-11-20T00:58:05;37.72;;;17.55;;
74632;SDS011;63139;52.018;8.552;2022-11-20T01:00:39;37.17;;;18.27;;
74632;SDS011;63139;52.018;8.552;2022-11-20T01:03:07;35.45;;;17.60;;
74632;SDS011;63139;52.018;8.552;2022-11-20T01:05:35;33.97;;;15.68;;
74632;SDS011;63139;52.018;8.552;2022-11-20T01:08:04;37.13;;;19.02;;
74632;SDS011;63139;52.018;8.552;2022-11-20T01:10:32;31.20;;;15.55;;
74632;SDS011;63139;52.018;8.552;2022-11-20T01:12:59;32.35;;;15.60;;
74632;SDS011;63139;52.018;8.552;2022-11-20T01:15:43;33.50;;;16.77;;
74632;SDS011;63139;52.018;8.552;2022-11-20T01:18:10;31.65;;;15.63;;
74632;SDS011;63139;52.018;8.552;2022-11-20T01:20:38;31.20;;;15.60;;
74632;SDS011;63139;52.018;8.552;2022-11-20T01:23:07;33.30;;;17.75;;
74632;SDS011;63139;52.018;8.552;2022-11-20T01:25:35;30.83;;;15.15;;
74632;SDS011;63139;52.018;8.552;2022-11-20T01:28:02;32.13;;;16.55;;
74632;SDS011;63139;52.018;8.552;2022-11-20T01:30:30;39.42;;;18.30;;
74632;SDS011;63139;52.018;8.552;2022-11-20T01:32:58;35.50;;;16.98;;
74632;SDS011;63139;52.018;8.552;2022-11-20T01:35:26;34.25;;;17.30;;
74632;SDS011;63139;52.018;8.552;2022-11-20T01:37:53;29.55;;;14.63;;
74632;SDS011;63139;52.018;8.552;2022-11-20T01:40:23;30.83;;;14.50;;
74632;SDS011;63139;52.018;8.552;2022-11-20T01:42:52;35.10;;;17.05;;
74632;SDS011;63139;52.018;8.552;2022-11-20T01:45:50;32.47;;;14.38;;
74632;SDS011;63139;52.018;8.552;2022-11-20T01:48:25;33.53;;;16.13;;
74632;SDS011;63139;52.018;8.552;2022-11-20T01:50:56;32.63;;;15.50;;
74632;SDS011;63139;52.018;8.552;2022-11-20T01:53:26;32.38;;;15.65;;
74632;SDS011;63139;52.018;8.552;2022-11-20T01:55:59;29.15;;;13.02;;
74632;SDS011;63139;52.018;8.552;2022-11-20T01:58:31;28.88;;;13.32;;
74632;SDS011;63139;52.018;8.552;2022-11-20T02:01:02;33.65;;;15.65;;
74632;SDS011;63139;52.018;8.552;2022-11-20T02:03:30;28.92;;;14.50;;
74632;SDS011;63139;52.018;8.552;2022-11-20T02:06:01;38.22;;;17.90;;
74632;SDS011;63139;52.018;8.552;2022-11-20T02:08:33;36.60;;;16.48;;
74632;SDS011;63139;52.018;8.552;2022-11-20T02:11:03;35.00;;;16.40;;
74632;SDS011;63139;52.018;8.552;2022-11-20T02:13:30;32.65;;;16.58;;
74632;SDS011;63139;52.018;8.552;2022-11-20T02:16:14;33.72;;;16.02;;
74632;SDS011;63139;52.018;8.552;2022-11-20T02:18:46;40.13;;;18.05;;
74632;SDS011;63139;52.018;8.552;2022-11-20T02:21:19;37.55;;;17.00;;
74632;SDS011;63139;52.018;8.552;2022-11-20T02:24:03;36.33;;;16.75;;
74632;SDS011;63139;52.018;8.552;2022-11-20T02:26:34;40.42;;;18.92;;
74632;SDS011;63139;52.018;8.552;2022-11-20T02:29:05;32.53;;;15.07;;
74632;SDS011;63139;52.018;8.552;2022-11-20T02:31:36;30.60;;;14.68;;
74632;SDS011;63139;52.018;8.552;2022-11-20T02:34:05;32.30;;;14.73;;
74632;SDS011;63139;52.018;8.552;2022-11-20T02:36:33;30.10;;;14.23;;
74632;SDS011;63139;52.018;8.552;2022-11-20T02:39:04;30.10;;;14.52;;
74632;SDS011;63139;52.018;8.552;2022-11-20T02:41:33;33.25;;;15.50;;
74632;SDS011;63139;52.018;8.552;2022-11-20T02:44:03;32.45;;;16.05;;
74632;SDS011;63139;52.018;8.552;2022-11-20T02:46:31;40.50;;;19.55;;
74632;SDS011;63139;52.018;8.552;2022-11-20T02:49:00;27.92;;;13.48;;
74632;SDS011;63139;52.018;8.552;2022-11-20T02:51:29;35.70;;;16.58;;
74632;SDS011;63139;52.018;8.552;2022-11-20T02:53:57;25.98;;;13.57;;
74632;SDS011;63139;52.018;8.552;2022-11-20T02:56:26;33.22;;;17.70;;
74632;SDS011;63139;52.018;8.552;2022-11-20T02:58:54;32.03;;;16.40;;
74632;SDS011;63139;52.018;8.552;2022-11-20T03:01:22;31.52;;;15.63;;
74632;SDS011;63139;52.018;8.552;2022-11-20T03:03:50;31.15;;;16.17;;
74632;SDS011;63139;52.018;8.552;2022-11-20T03:06:20;27.17;;;12.43;;
74632;SDS011;63139;52.018;8.552;2022-11-20T03:08:48;35.95;;;17.95;;
74632;SDS011;63139;52.018;8.552;2022-11-20T03:11:16;29.73;;;14.63;;
74632;SDS011;63139;52.018;8.552;2022-11-20T03:13:45;34.67;;;17.20;;
74632;SDS011;63139;52.018;8.552;2022-11-20T03:16:14;31.60;;;16.30;;
74632;SDS011;63139;52.018;8.552;2022-11-20T03:18:43;28.10;;;14.13;;
74632;SDS011;63139;52.018;8.552;2022-11-20T03:21:11;39.75;;;17.73;;
74632;SDS011;63139;52.018;8.552;2022-11-20T03:23:40;37.28;;;18.10;;
74632;SDS011;63139;52.018;8.552;2022-11-20T03:26:09;26.90;;;14.18;;
74632;SDS011;63139;52.018;8.552;2022-11-20T03:28:38;38.10;;;18.70;;
74632;SDS011;63139;52.018;8.552;2022-11-20T03:31:09;29.17;;;14.48;;
74632;SDS011;63139;52.018;8.552;2022-11-20T03:33:38;31.55;;;15.13;;
74632;SDS011;63139;52.018;8.552;2022-11-20T03:36:07;32.35;;;15.25;;
74632;SDS011;63139;52.018;8.552;2022-11-20T03:38:37;32.10;;;15.00;;
74632;SDS011;63139;52.018;8.552;2022-11-20T03:41:06;30.95;;;14.00;;
74632;SDS011;63139;52.018;8.552;2022-11-20T03:43:35;30.98;;;16.00;;
74632;SDS011;63139;52.018;8.552;2022-11-20T03:46:02;35.00;;;15.95;;
74632;SDS011;63139;52.018;8.552;2022-11-20T03:48:32;27.70;;;14.40;;
74632;SDS011;63139;52.018;8.552;2022-11-20T03:51:07;31.30;;;15.45;;
74632;SDS011;63139;52.018;8.552;2022-11-20T03:53:36;33.92;;;17.52;;
74632;SDS011;63139;52.018;8.552;2022-11-20T03:56:04;26.42;;;12.60;;
74632;SDS011;63139;52.018;8.552;2022-11-20T03:58:32;32.85;;;14.82;;
74632;SDS011;63139;52.018;8.552;2022-11-20T04:01:04;32.83;;;17.08;;
74632;SDS011;63139;52.018;8.552;2022-11-20T04:03:34;34.42;;;15.43;;
74632;SDS011;63139;52.018;8.552;2022-11-20T04:06:03;27.85;;;13.30;;
74632;SDS011;63139;52.018;8.552;2022-11-20T04:08:32;27.15;;;13.90;;
74632;SDS011;63139;52.018;8.552;2022-11-20T04:11:11;26.67;;;12.85;;
74632;SDS011;63139;52.018;8.552;2022-11-20T04:13:40;36.05;;;17.02;;
74632;SDS011;63139;52.018;8.552;2022-11-20T04:16:09;29.05;;;13.80;;
74632;SDS011;63139;52.018;8.552;2022-11-20T04:18:38;31.67;;;16.27;;
74632;SDS011;63139;52.018;8.552;2022-11-20T04:21:06;28.23;;;13.85;;
74632;SDS011;63139;52.018;8.552;2022-11-20T04:23:34;34.45;;;16.05;;
74632;SDS011;63139;52.018;8.552;2022-11-20T04:26:02;30.25;;;16.13;;
74632;SDS011;63139;52.018;8.552;2022-11-20T04:28:31;33.33;;;15.82;;
74632;SDS011;63139;52.018;8.552;2022-11-20T04:31:02;32.65;;;15.85;;
74632;SDS011;63139;52.018;8.552;2022-11-20T04:33:31;35.28;;;16.50;;
74632;SDS011;63139;52.018;8.552;2022-11-20T04:36:05;28.45;;;14.95;;
74632;SDS011;63139;52.018;8.552;2022-11-20T04:38:34;27.27;;;14.70;;
74632;SDS011;63139;52.018;8.552;2022-11-20T04:41:03;36.60;;;17.27;;
74632;SDS011;63139;52.018;8.552;2022-11-20T04:43:32;27.45;;;14.73;;
74632;SDS011;63139;52.018;8.552;2022-11-20T04:46:01;23.63;;;11.70;;
74632;SDS011;63139;52.018;8.552;2022-11-20T04:48:29;32.55;;;15.20;;
74632;SDS011;63139;52.018;8.552;2022-11-20T04:50:57;31.88;;;15.23;;
74632;SDS011;63139;52.018;8.552;2022-11-20T04:53:26;23.73;;;12.27;;
74632;SDS011;63139;52.018;8.552;2022-11-20T04:55:58;25.83;;;12.75;;
74632;SDS011;63139;52.018;8.552;2022-11-20T04:58:27;29.98;;;16.13;;
74632;SDS011;63139;52.018;8.552;2022-11-20T05:01:00;33.92;;;16.75;;
74632;SDS011;63139;52.018;8.552;2022-11-20T05:03:29;29.15;;;14.05;;
74632;SDS011;63139;52.018;8.552;2022-11-20T05:05:59;29.33;;;14.48;;
74632;SDS011;63139;52.018;8.552;2022-11-20T05:08:29;24.08;;;12.50;;
74632;SDS011;63139;52.018;8.552;2022-11-20T05:11:01;25.38;;;12.07;;
74632;SDS011;63139;52.018;8.552;2022-11-20T05:13:29;23.42;;;12.57;;
74632;SDS011;63139;52.018;8.552;2022-11-20T05:16:00;21.58;;;9.75;;
74632;SDS011;63139;52.018;8.552;2022-11-20T05:18:29;21.17;;;10.85;;
74632;SDS011;63139;52.018;8.552;2022-11-20T05:20:57;26.40;;;13.50;;
74632;SDS011;63139;52.018;8.552;2022-11-20T05:23:25;22.02;;;10.55;;
74632;SDS011;63139;52.018;8.552;2022-11-20T05:25:56;24.67;;;13.20;;
74632;SDS011;63139;52.018;8.552;2022-11-20T05:28:25;22.98;;;10.70;;
74632;SDS011;63139;52.018;8.552;2022-11-20T05:30:54;21.38;;;10.07;;
74632;SDS011;63139;52.018;8.552;2022-11-20T05:33:22;24.83;;;12.90;;
74632;SDS011;63139;52.018;8.552;2022-11-20T05:35:50;23.55;;;13.20;;
74632;SDS011;63139;52.018;8.552;2022-11-20T05:38:17;24.38;;;11.75;;
74632;SDS011;63139;52.018;8.552;2022-11-20T05:40:45;22.17;;;10.27;;
74632;SDS011;63139;52.018;8.552;2022-11-20T05:43:14;22.73;;;10.98;;
74632;SDS011;63139;52.018;8.552;2022-11-20T05:45:42;22.83;;;11.98;;
74632;SDS011;63139;52.018;8.552;2022-11-20T05:48:10;29.60;;;14.80;;
74632;SDS011;63139;52.018;8.552;2022-11-20T05:50:37;28.08;;;13.98;;
74632;SDS011;63139;52.018;8.552;2022-11-20T05:53:05;21.35;;;10.73;;
74632;SDS011;63139;52.018;8.552;2022-11-20T05:55:33;22.08;;;11.77;;
74632;SDS011;63139;52.018;8.552;2022-11-20T05:58:00;26.98;;;12.57;;
74632;SDS011;63139;52.018;8.552;2022-11-20T06:00:30;23.45;;;11.82;;
74632;SDS011;63139;52.018;8.552;2022-11-20T06:02:57;20.40;;;10.18;;
74632;SDS011;63139;52.018;8.552;2022-11-20T06:05:25;26.15;;;12.50;;
74632;SDS011;63139;52.018;8.552;2022-11-20T06:07:53;20.13;;;10.82;;
74632;SDS011;63139;52.018;8.552;2022-11-20T06:10:20;20.75;;;10.88;;
74632;SDS011;63139;52.018;8.552;2022-11-20T06:12:48;23.90;;;11.90;;
74632;SDS011;63139;52.018;8.552;2022-11-20T06:15:16;27.90;;;13.43;;
74632;SDS011;63139;52.018;8.552;2022-11-20T06:17:45;21.17;;;11.07;;
74632;SDS011;63139;52.018;8.552;2022-11-20T06:20:13;23.38;;;11.25;;
74632;SDS011;63139;52.018;8.552;2022-11-20T06:22:41;26.23;;;12.70;;
74632;SDS011;63139;52.018;8.552;2022-11-20T06:25:08;29.48;;;13.02;;
74632;SDS011;63139;52.018;8.552;2022-11-20T06:27:36;21.52;;;11.25;;
74632;SDS011;63139;52.018;8.552;2022-11-20T06:30:04;21.63;;;10.27;;
74632;SDS011;63139;52.018;8.552;2022-11-20T06:32:33;23.35;;;11.18;;
74632;SDS011;63139;52.018;8.552;2022-11-20T06:35:02;21.35;;;11.60;;
74632;SDS011;63139;52.018;8.552;2022-11-20T06:37:30;17.45;;;8.07;;
74632;SDS011;63139;52.018;8.552;2022-11-20T06:39:58;17.83;;;9.30;;
74632;SDS011;63139;52.018;8.552;2022-11-20T06:42:26;20.63;;;8.73;;
74632;SDS011;63139;52.018;8.552;2022-11-20T06:44:53;20.65;;;9.95;;
74632;SDS011;63139;52.018;8.552;2022-11-20T06:47:21;18.15;;;9.00;;
74632;SDS011;63139;52.018;8.552;2022-11-20T06:49:49;17.83;;;8.82;;
74632;SDS011;63139;52.018;8.552;2022-11-20T06:52:18;19.90;;;9.15;;
74632;SDS011;63139;52.018;8.552;2022-11-20T06:54:45;22.05;;;10.35;;
74632;SDS011;63139;52.018;8.552;2022-11-20T06:57:13;20.55;;;9.50;;
74632;SDS011;63139;52.018;8.552;2022-11-20T06:59:41;23.50;;;8.95;;
74632;SDS011;63139;52.018;8.552;2022-11-20T07:02:09;20.20;;;10.63;;
74632;SDS011;63139;52.018;8.552;2022-11-20T07:04:37;21.92;;;11.82;;
74632;SDS011;63139;52.018;8.552;2022-11-20T07:07:05;16.67;;;8.35;;
74632;SDS011;63139;52.018;8.552;2022-11-20T07:09:35;20.35;;;10.40;;
74632;SDS011;63139;52.018;8.552;2022-11-20T07:12:03;19.58;;;9.63;;
74632;SDS011;63139;52.018;8.552;2022-11-20T07:14:31;22.83;;;10.32;;
74632;SDS011;63139;52.018;8.552;2022-11-20T07:16:58;16.48;;;8.77;;
74632;SDS011;63139;52.018;8.552;2022-11-20T07:19:26;23.65;;;11.75;;
74632;SDS011;63139;52.018;8.552;2022-11-20T07:21:54;22.58;;;10.55;;
74632;SDS011;63139;52.018;8.552;2022-11-20T07:24:21;17.95;;;8.75;;
74632;SDS011;63139;52.018;8.552;2022-11-20T07:26:50;21.55;;;10.50;;
74632;SDS011;63139;52.018;8.552;2022-11-20T07:29:18;24.23;;;9.70;;
74632;SDS011;63139;52.018;8.552;2022-11-20T07:31:46;33.42;;;13.55;;
74632;SDS011;63139;52.018;8.552;2022-11-20T07:34:14;32.28;;;13.65;;
74632;SDS011;63139;52.018;8.552;2022-11-20T07:36:42;32.53;;;13.73;;
74632;SDS011;63139;52.018;8.552;2022-11-20T07:39:10;42.30;;;15.52;;
74632;SDS011;63139;52.018;8.552;2022-11-20T07:41:37;43.00;;;15.30;;
74632;SDS011;63139;52.018;8.552;2022-11-20T07:44:06;49.03;;;17.70;;
74632;SDS011;63139;52.018;8.552;2022-11-20T07:46:34;56.13;;;18.05;;
74632;SDS011;63139;52.018;8.552;2022-11-20T07:49:02;50.00;;;17.38;;
74632;SDS011;63139;52.018;8.552;2022-11-20T07:51:30;45.60;;;16.30;;
74632;SDS011;63139;52.018;8.552;2022-11-20T07:53:57;50.70;;;17.40;;
74632;SDS011;63139;52.018;8.552;2022-11-20T07:56:25;44.40;;;17.23;;
74632;SDS011;63139;52.018;8.552;2022-11-20T07:58:53;44.42;;;17.63;;
74632;SDS011;63139;52.018;8.552;2022-11-20T08:01:22;40.65;;;16.05;;
74632;SDS011;63139;52.018;8.552;2022-11-20T08:03:50;37.40;;;15.35;;
74632;SDS011;63139;52.018;8.552;2022-11-20T08:06:18;40.40;;;17.13;;
74632;SDS011;63139;52.018;8.552;2022-11-20T08:08:46;34.65;;;14.77;;
74632;SDS011;63139;52.018;8.552;2022-11-20T08:11:14;32.65;;;14.02;;
74632;SDS011;63139;52.018;8.552;2022-11-20T08:13:59;27.92;;;13.10;;
74632;SDS011;63139;52.018;8.552;2022-11-20T08:16:40;32.95;;;15.25;;
74632;SDS011;63139;52.018;8.552;2022-11-20T08:19:09;35.20;;;17.52;;
74632;SDS011;63139;52.018;8.552;2022-11-20T08:21:37;28.42;;;14.15;;
74632;SDS011;63139;52.018;8.552;2022-11-20T08:24:06;33.80;;;16.92;;
74632;SDS011;63139;52.018;8.552;2022-11-20T08:26:34;28.75;;;14.77;;
74632;SDS011;63139;52.018;8.552;2022-11-20T08:29:03;28.73;;;13.70;;
74632;SDS011;63139;52.018;8.552;2022-11-20T08:31:32;33.72;;;16.92;;
74632;SDS011;63139;52.018;8.552;2022-11-20T08:34:01;32.20;;;16.27;;
74632;SDS011;63139;52.018;8.552;2022-11-20T08:36:34;33.00;;;16.27;;
74632;SDS011;63139;52.018;8.552;2022-11-20T08:39:03;27.52;;;14.77;;
74632;SDS011;63139;52.018;8.552;2022-11-20T08:41:31;27.08;;;13.90;;
74632;SDS011;63139;52.018;8.552;2022-11-20T08:44:00;34.95;;;16.05;;
74632;SDS011;63139;52.018;8.552;2022-11-20T08:46:31;46.22;;;20.75;;
74632;SDS011;63139;52.018;8.552;2022-11-20T08:49:03;41.58;;;17.85;;
74632;SDS011;63139;52.018;8.552;2022-11-20T08:51:30;39.30;;;17.55;;
74632;SDS011;63139;52.018;8.552;2022-11-20T08:53:58;36.47;;;17.55;;
74632;SDS011;63139;52.018;8.552;2022-11-20T08:56:26;31.92;;;16.40;;
74632;SDS011;63139;52.018;8.552;2022-11-20T08:58:55;31.30;;;16.83;;
74632;SDS011;63139;52.018;8.552;2022-11-20T09:01:42;24.27;;;13.60;;
74632;SDS011;63139;52.018;8.552;2022-11-20T09:04:12;23.17;;;13.10;;
74632;SDS011;63139;52.018;8.552;2022-11-20T09:06:40;24.45;;;13.43;;
74632;SDS011;63139;52.018;8.552;2022-11-20T09:09:08;23.85;;;12.18;;
74632;SDS011;63139;52.018;8.552;2022-11-20T09:11:36;18.63;;;10.27;;
74632;SDS011;63139;52.018;8.552;2022-11-20T09:14:03;18.48;;;10.18;;
74632;SDS011;63139;52.018;8.552;2022-11-20T09:16:31;21.40;;;11.40;;
74632;SDS011;63139;52.018;8.552;2022-11-20T09:18:59;14.98;;;9.57;;
74632;SDS011;63139;52.018;8.552;2022-11-20T09:21:48;17.02;;;9.85;;
74632;SDS011;63139;52.018;8.552;2022-11-20T09:24:16;14.82;;;8.48;;
74632;SDS011;63139;52.018;8.552;2022-11-20T09:26:44;13.77;;;8.93;;
74632;SDS011;63139;52.018;8.552;2022-11-20T09:29:12;14.25;;;8.40;;
74632;SDS011;63139;52.018;8.552;2022-11-20T09:31:40;13.52;;;8.07;;
74632;SDS011;63139;52.018;8.552;2022-11-20T09:34:07;13.50;;;8.63;;
74632;SDS011;63139;52.018;8.552;2022-11-20T09:36:36;14.80;;;8.45;;
74632;SDS011;63139;52.018;8.552;2022-11-20T09:39:05;13.30;;;8.13;;
74632;SDS011;63139;52.018;8.552;2022-11-20T09:41:43;13.55;;;8.13;;
74632;SDS011;63139;52.018;8.552;2022-11-20T09:44:27;13.10;;;7.72;;
74632;SDS011;63139;52.018;8.552;2022-11-20T09:47:08;15.82;;;8.70;;
74632;SDS011;63139;52.018;8.552;2022-11-20T09:49:50;13.23;;;7.80;;
74632;SDS011;63139;52.018;8.552;2022-11-20T09:52:29;12.55;;;8.27;;
74632;SDS011;63139;52.018;8.552;2022-11-20T09:55:06;11.85;;;7.45;;
74632;SDS011;63139;52.018;8.552;2022-11-20T09:57:38;12.68;;;8.07;;
74632;SDS011;63139;52.018;8.552;2022-11-20T10:00:09;14.18;;;8.45;;
74632;SDS011;63139;52.018;8.552;2022-11-20T10:02:40;14.48;;;9.10;;
74632;SDS011;63139;52.018;8.552;2022-11-20T10:05:10;110.43;;;64.22;;
74632;SDS011;63139;52.018;8.552;2022-11-20T10:07:43;23.50;;;14.30;;
74632;SDS011;63139;52.018;8.552;2022-11-20T10:10:16;20.42;;;11.55;;
74632;SDS011;63139;52.018;8.552;2022-11-20T10:12:52;18.40;;;10.20;;
74632;SDS011;63139;52.018;8.552;2022-11-20T10:15:33;17.30;;;9.73;;
74632;SDS011;63139;52.018;8.552;2022-11-20T10:18:22;16.48;;;9.95;;
74632;SDS011;63139;52.018;8.552;2022-11-20T10:21:01;17.50;;;10.07;;
74632;SDS011;63139;52.018;8.552;2022-11-20T10:23:45;15.13;;;9.60;;
74632;SDS011;63139;52.018;8.552;2022-11-20T10:26:30;15.52;;;8.77;;
74632;SDS011;63139;52.018;8.552;2022-11-20T10:29:07;17.23;;;10.70;;
74632;SDS011;63139;52.018;8.552;2022-11-20T10:31:40;14.65;;;8.98;;
74632;SDS011;63139;52.018;8.552;2022-11-20T10:34:15;14.85;;;8.45;;
74632;SDS011;63139;52.018;8.552;2022-11-20T10:36:49;14.48;;;8.82;;
74632;SDS011;63139;52.018;8.552;2022-11-20T10:39:24;16.60;;;9.23;;
74632;SDS011;63139;52.018;8.552;2022-11-20T10:41:59;14.77;;;8.45;;
74632;SDS011;63139;52.018;8.552;2022-11-20T10:44:28;18.13;;;10.40;;
74632;SDS011;63139;52.018;8.552;2022-11-20T10:47:21;18.88;;;10.90;;
74632;SDS011;63139;52.018;8.552;2022-11-20T10:49:50;15.38;;;9.30;;
74632;SDS011;63139;52.018;8.552;2022-11-20T10:52:21;19.10;;;10.35;;
74632;SDS011;63139;52.018;8.552;2022-11-20T10:55:00;16.88;;;8.98;;
74632;SDS011;63139;52.018;8.552;2022-11-20T10:57:45;14.20;;;8.40;;
74632;SDS011;63139;52.018;8.552;2022-11-20T11:00:20;13.00;;;8.07;;
74632;SDS011;63139;52.018;8.552;2022-11-20T11:02:49;12.07;;;7.78;;
74632;SDS011;63139;52.018;8.552;2022-11-20T11:05:21;13.60;;;8.30;;
74632;SDS011;63139;52.018;8.552;2022-11-20T11:07:55;14.55;;;9.07;;
74632;SDS011;63139;52.018;8.552;2022-11-20T11:10:26;14.45;;;8.95;;
74632;SDS011;63139;52.018;8.552;2022-11-20T11:13:02;13.77;;;8.20;;
74632;SDS011;63139;52.018;8.552;2022-11-20T11:15:36;13.80;;;9.32;;
74632;SDS011;63139;52.018;8.552;2022-11-20T11:18:07;14.75;;;8.98;;
74632;SDS011;63139;52.018;8.552;2022-11-20T11:20:36;14.20;;;7.68;;
74632;SDS011;63139;52.018;8.552;2022-11-20T11:23:05;15.77;;;8.68;;
74632;SDS011;63139;52.018;8.552;2022-11-20T11:25:56;12.23;;;7.63;;
74632;SDS011;63139;52.018;8.552;2022-11-20T11:28:26;13.45;;;7.43;;
74632;SDS011;63139;52.018;8.552;2022-11-20T11:30:55;16.08;;;8.25;;
74632;SDS011;63139;52.018;8.552;2022-11-20T11:33:24;13.10;;;8.02;;
74632;SDS011;63139;52.018;8.552;2022-11-20T11:35:53;12.80;;;8.05;;
74632;SDS011;63139;52.018;8.552;2022-11-20T11:38:27;10.85;;;6.57;;
74632;SDS011;63139;52.018;8.552;2022-11-20T11:40:58;14.00;;;8.07;;
74632;SDS011;63139;52.018;8.552;2022-11-20T11:43:28;12.73;;;7.65;;
74632;SDS011;63139;52.018;8.552;2022-11-20T11:46:30;12.65;;;7.15;;
74632;SDS011;63139;52.018;8.552;2022-11-20T11:49:08;11.98;;;7.38;;
74632;SDS011;63139;52.018;8.552;2022-11-20T11:51:45;10.95;;;6.65;;
74632;SDS011;63139;52.018;8.552;2022-11-20T11:54:24;11.80;;;6.28;;
74632;SDS011;63139;52.018;8.552;2022-11-20T11:56:57;11.45;;;6.82;;
74632;SDS011;63139;52.018;8.552;2022-11-20T11:59:33;12.82;;;6.95;;
74632;SDS011;63139;52.018;8.552;2022-11-20T12:02:14;11.20;;;7.13;;
74632;SDS011;63139;52.018;8.552;2022-11-20T12:04:52;12.60;;;7.53;;
74632;SDS011;63139;52.018;8.552;2022-11-20T12:07:27;11.88;;;6.90;;
74632;SDS011;63139;52.018;8.552;2022-11-20T12:10:14;12.02;;;7.18;;
74632;SDS011;63139;52.018;8.552;2022-11-20T12:12:48;15.13;;;8.27;;
74632;SDS011;63139;52.018;8.552;2022-11-20T12:15:25;13.00;;;6.78;;
74632;SDS011;63139;52.018;8.552;2022-11-20T12:20:24;12.48;;;8.00;;
74632;SDS011;63139;52.018;8.552;2022-11-20T12:22:56;13.60;;;6.38;;
74632;SDS011;63139;52.018;8.552;2022-11-20T12:25:30;10.82;;;6.55;;
74632;SDS011;63139;52.018;8.552;2022-11-20T12:28:04;12.70;;;7.07;;
74632;SDS011;63139;52.018;8.552;2022-11-20T12:30:49;12.73;;;7.95;;
74632;SDS011;63139;52.018;8.552;2022-11-20T12:33:31;12.90;;;7.05;;
74632;SDS011;63139;52.018;8.552;2022-11-20T12:36:13;12.15;;;6.97;;
74632;SDS011;63139;52.018;8.552;2022-11-20T12:38:54;12.98;;;7.95;;
74632;SDS011;63139;52.018;8.552;2022-11-20T12:41:39;11.40;;;6.97;;
74632;SDS011;63139;52.018;8.552;2022-11-20T12:44:36;10.75;;;7.03;;
74632;SDS011;63139;52.018;8.552;2022-11-20T12:47:45;11.57;;;6.95;;
74632;SDS011;63139;52.018;8.552;2022-11-20T12:50:25;13.18;;;7.20;;
74632;SDS011;63139;52.018;8.552;2022-11-20T12:53:25;10.90;;;6.78;;
74632;SDS011;63139;52.018;8.552;2022-11-20T12:56:01;8.97;;;5.67;;
74632;SDS011;63139;52.018;8.552;2022-11-20T12:58:38;13.90;;;7.90;;
74632;SDS011;63139;52.018;8.552;2022-11-20T13:01:17;10.65;;;6.38;;
74632;SDS011;63139;52.018;8.552;2022-11-20T13:04:12;14.00;;;8.02;;
74632;SDS011;63139;52.018;8.552;2022-11-20T13:06:46;11.80;;;6.68;;
74632;SDS011;63139;52.018;8.552;2022-11-20T13:09:15;14.43;;;7.80;;
74632;SDS011;63139;52.018;8.552;2022-11-20T13:11:49;12.57;;;7.35;;
74632;SDS011;63139;52.018;8.552;2022-11-20T13:14:28;13.38;;;6.85;;
74632;SDS011;63139;52.018;8.552;2022-11-20T13:17:03;10.80;;;6.28;;
74632;SDS011;63139;52.018;8.552;2022-11-20T13:19:37;12.82;;;7.07;;
74632;SDS011;63139;52.018;8.552;2022-11-20T13:22:05;15.02;;;8.65;;
74632;SDS011;63139;52.018;8.552;2022-11-20T13:24:35;13.40;;;7.90;;
74632;SDS011;63139;52.018;8.552;2022-11-20T13:27:04;15.02;;;8.95;;
74632;SDS011;63139;52.018;8.552;2022-11-20T13:29:58;10.43;;;6.15;;
74632;SDS011;63139;52.018;8.552;2022-11-20T13:32:28;12.25;;;6.75;;
74632;SDS011;63139;52.018;8.552;2022-11-20T13:35:00;12.60;;;6.93;;
74632;SDS011;63139;52.018;8.552;2022-11-20T13:37:30;13.50;;;7.40;;
74632;SDS011;63139;52.018;8.552;2022-11-20T13:40:12;12.57;;;7.25;;
74632;SDS011;63139;52.018;8.552;2022-11-20T13:42:43;14.02;;;7.68;;
74632;SDS011;63139;52.018;8.552;2022-11-20T13:45:21;13.63;;;7.65;;
74632;SDS011;63139;52.018;8.552;2022-11-20T13:47:51;12.38;;;7.13;;
74632;SDS011;63139;52.018;8.552;2022-11-20T13:50:25;15.90;;;8.23;;
74632;SDS011;63139;52.018;8.552;2022-11-20T13:53:09;14.02;;;8.18;;
74632;SDS011;63139;52.018;8.552;2022-11-20T13:55:54;15.88;;;8.93;;
74632;SDS011;63139;52.018;8.552;2022-11-20T13:58:28;12.55;;;7.15;;
74632;SDS011;63139;52.018;8.552;2022-11-20T14:01:10;10.68;;;6.80;;
74632;SDS011;63139;52.018;8.552;2022-11-20T14:03:43;13.93;;;8.18;;
74632;SDS011;63139;52.018;8.552;2022-11-20T14:06:34;17.10;;;9.98;;
74632;SDS011;63139;52.018;8.552;2022-11-20T14:09:10;19.48;;;10.02;;
74632;SDS011;63139;52.018;8.552;2022-11-20T14:11:45;17.90;;;10.68;;
74632;SDS011;63139;52.018;8.552;2022-11-20T14:14:15;18.35;;;9.80;;
74632;SDS011;63139;52.018;8.552;2022-11-20T14:16:45;20.80;;;10.73;;
74632;SDS011;63139;52.018;8.552;2022-11-20T14:19:21;17.60;;;9.85;;
74632;SDS011;63139;52.018;8.552;2022-11-20T14:22:05;18.58;;;10.85;;
74632;SDS011;63139;52.018;8.552;2022-11-20T14:24:36;16.65;;;9.52;;
74632;SDS011;63139;52.018;8.552;2022-11-20T14:27:04;18.02;;;9.60;;
74632;SDS011;63139;52.018;8.552;2022-11-20T14:29:33;19.83;;;11.68;;
74632;SDS011;63139;52.018;8.552;2022-11-20T14:32:03;22.85;;;11.63;;
74632;SDS011;63139;52.018;8.552;2022-11-20T14:34:32;17.90;;;10.55;;
74632;SDS011;63139;52.018;8.552;2022-11-20T14:37:10;21.58;;;11.30;;
74632;SDS011;63139;52.018;8.552;2022-11-20T14:39:43;30.27;;;15.40;;
74632;SDS011;63139;52.018;8.552;2022-11-20T14:42:16;19.48;;;10.98;;
74632;SDS011;63139;52.018;8.552;2022-11-20T14:44:45;21.10;;;11.07;;
74632;SDS011;63139;52.018;8.552;2022-11-20T14:47:15;33.60;;;19.70;;
74632;SDS011;63139;52.018;8.552;2022-11-20T14:49:46;22.55;;;13.23;;
74632;SDS011;63139;52.018;8.552;2022-11-20T14:52:16;22.42;;;12.43;;
74632;SDS011;63139;52.018;8.552;2022-11-20T14:54:46;20.77;;;11.68;;